createdAt,value
2019-03-24T00:02:16.095Z,11.70
2019-03-24T00:05:22.569Z,14.83
2019-03-24T00:08:28.829Z,11.63
2019-03-24T00:11:35.073Z,11.77
2019-03-24T00:14:41.442Z,12.77
2019-03-24T00:17:47.746Z,14.33
2019-03-24T00:20:54.436Z,14.47
2019-03-24T00:24:00.728Z,13.20
2019-03-24T00:27:07.139Z,15.03
2019-03-24T00:30:13.905Z,12.50
2019-03-24T00:33:20.226Z,11.30
2019-03-24T00:36:26.545Z,15.57
2019-03-24T00:39:32.935Z,16.73
2019-03-24T00:42:39.237Z,13.43
2019-03-24T00:45:45.773Z,15.90
2019-03-24T00:48:53.098Z,15.03
2019-03-24T00:51:59.399Z,9.30
2019-03-24T00:55:05.912Z,13.50
2019-03-24T00:58:12.193Z,14.47
2019-03-24T01:01:19.319Z,12.97
2019-03-24T01:04:25.663Z,14.67
2019-03-24T01:07:31.978Z,12.77
2019-03-24T01:10:39.559Z,14.97
2019-03-24T01:13:46.965Z,19.53
2019-03-24T01:16:53.235Z,17.03
2019-03-24T01:19:59.562Z,12.63
2019-03-24T01:23:06.060Z,16.17
2019-03-24T01:26:12.829Z,11.27
2019-03-24T01:29:19.086Z,16.20
2019-03-24T01:32:25.493Z,13.27
2019-03-24T01:35:31.848Z,15.27
2019-03-24T01:38:39.380Z,12.83
2019-03-24T01:41:45.740Z,10.57
2019-03-24T01:44:52.129Z,12.33
2019-03-24T01:47:58.429Z,12.60
2019-03-24T01:51:04.876Z,10.50
2019-03-24T01:54:11.145Z,11.10
2019-03-24T01:57:17.526Z,11.57
2019-03-24T02:00:23.916Z,12.53
2019-03-24T02:03:30.474Z,10.37
2019-03-24T02:06:38.642Z,14.30
2019-03-24T02:09:45.042Z,11.73
2019-03-24T02:12:51.395Z,13.67
2019-03-24T02:15:57.758Z,11.73
2019-03-24T02:19:05.460Z,9.57
2019-03-24T02:22:11.838Z,19.20
2019-03-24T02:25:19.212Z,14.03
2019-03-24T02:28:25.503Z,11.10
2019-03-24T02:31:31.821Z,14.27
2019-03-24T02:34:38.044Z,10.20
2019-03-24T02:37:44.390Z,14.77
2019-03-24T02:40:50.657Z,16.57
2019-03-24T02:43:57.039Z,15.60
2019-03-24T02:47:03.357Z,10.63
2019-03-24T02:50:10.448Z,11.30
2019-03-24T02:53:16.723Z,13.00
2019-03-24T02:56:23.047Z,13.97
2019-03-24T02:59:29.321Z,10.87
2019-03-24T03:02:35.696Z,10.33
2019-03-24T03:05:42.243Z,14.77
2019-03-24T03:08:48.491Z,15.37
2019-03-24T03:11:54.867Z,11.63
2019-03-24T03:15:01.209Z,13.77
2019-03-24T03:18:08.428Z,16.77
2019-03-24T03:21:14.699Z,16.80
2019-03-24T03:24:21.025Z,19.90
2019-03-24T03:27:27.480Z,10.57
2019-03-24T03:30:33.752Z,13.23
2019-03-24T03:33:40.076Z,15.00
2019-03-24T03:36:46.343Z,12.60
2019-03-24T03:39:57.378Z,15.53
2019-03-24T03:43:00.693Z,13.20
2019-03-24T03:46:07.161Z,10.33
2019-03-24T03:49:13.426Z,11.47
2019-03-24T03:52:19.924Z,15.07
2019-03-24T03:55:26.287Z,12.77
2019-03-24T03:58:32.558Z,14.40
2019-03-24T04:01:38.852Z,15.27
2019-03-24T04:04:45.235Z,17.10
2019-03-24T04:07:52.483Z,12.57
2019-03-24T04:10:58.842Z,15.27
2019-03-24T04:14:05.332Z,15.23
2019-03-24T04:17:11.621Z,15.57
2019-03-24T04:20:18.062Z,17.53
2019-03-24T04:23:24.355Z,26.50
2019-03-24T04:26:30.682Z,22.23
2019-03-24T04:29:36.970Z,19.60
2019-03-24T04:32:43.260Z,24.50
2019-03-24T04:35:49.520Z,23.87
2019-03-24T04:38:55.814Z,27.73
2019-03-24T04:42:02.107Z,22.73
2019-03-24T04:45:08.805Z,23.00
2019-03-24T04:48:15.073Z,23.73
2019-03-24T04:51:21.325Z,25.67
2019-03-24T04:54:27.632Z,22.63
2019-03-24T04:57:33.909Z,22.10
2019-03-24T05:00:41.243Z,18.90
2019-03-24T05:03:47.632Z,23.37
2019-03-24T05:06:54.446Z,20.13
2019-03-24T05:10:00.952Z,18.83
2019-03-24T05:13:07.269Z,23.07
2019-03-24T05:16:13.747Z,21.23
2019-03-24T05:19:20.058Z,20.90
2019-03-24T05:22:26.504Z,23.70
2019-03-24T05:25:32.792Z,25.73
2019-03-24T05:28:39.086Z,21.87
2019-03-24T05:31:45.404Z,25.27
2019-03-24T05:34:51.684Z,22.33
2019-03-24T05:37:57.995Z,19.57
2019-03-24T05:41:04.357Z,22.60
2019-03-24T05:44:10.680Z,25.50
2019-03-24T05:47:17.031Z,22.37
2019-03-24T05:50:23.331Z,27.03
2019-03-24T05:53:29.602Z,20.37
2019-03-24T05:56:35.989Z,17.27
2019-03-24T05:59:43.289Z,22.37
2019-03-24T06:02:49.568Z,20.60
2019-03-24T06:05:55.883Z,22.93
2019-03-24T06:09:02.176Z,19.53
2019-03-24T06:12:09.660Z,22.27
2019-03-24T06:15:16.146Z,18.37
2019-03-24T06:18:22.443Z,16.03
2019-03-24T06:21:28.709Z,19.17
2019-03-24T06:24:35.021Z,14.43
2019-03-24T06:27:41.344Z,13.80
2019-03-24T06:30:47.689Z,16.87
2019-03-24T06:33:53.992Z,16.20
2019-03-24T06:37:00.381Z,17.20
2019-03-24T06:40:06.859Z,15.87
2019-03-24T06:43:13.149Z,18.37
2019-03-24T06:46:19.412Z,14.90
2019-03-24T06:49:25.687Z,17.13
2019-03-24T06:52:32.111Z,16.50
2019-03-24T06:55:38.397Z,18.53
2019-03-24T06:58:44.702Z,17.10
2019-03-24T07:01:51.142Z,14.50
2019-03-24T07:04:57.430Z,15.83
2019-03-24T07:08:03.789Z,15.37
2019-03-24T07:11:13.628Z,17.33
2019-03-24T07:14:18.128Z,15.90
2019-03-24T07:17:24.534Z,20.43
2019-03-24T07:20:30.854Z,16.17
2019-03-24T07:23:37.130Z,19.57
2019-03-24T07:26:43.413Z,16.97
2019-03-24T07:29:49.790Z,13.63
2019-03-24T07:32:56.060Z,18.87
2019-03-24T07:36:02.382Z,20.73
2019-03-24T07:39:09.128Z,19.07
2019-03-24T07:42:15.460Z,16.53
2019-03-24T07:45:21.861Z,19.20
2019-03-24T07:48:28.174Z,20.57
2019-03-24T07:51:34.533Z,17.90
2019-03-24T07:54:40.903Z,16.93
2019-03-24T07:57:48.456Z,17.50
2019-03-24T08:00:54.751Z,20.23
2019-03-24T08:04:01.108Z,17.40
2019-03-24T08:07:07.632Z,18.77
2019-03-24T08:10:14.332Z,18.73
2019-03-24T08:13:20.872Z,20.73
2019-03-24T08:16:27.084Z,19.80
2019-03-24T08:19:33.407Z,16.97
2019-03-24T08:22:39.694Z,21.77
2019-03-24T08:25:46.100Z,19.90
2019-03-24T08:28:52.412Z,17.90
2019-03-24T08:31:58.817Z,27.87
2019-03-24T08:35:05.292Z,14.63
2019-03-24T08:38:11.639Z,18.73
2019-03-24T08:41:17.935Z,34.27
2019-03-24T08:44:24.445Z,17.80
2019-03-24T08:47:31.826Z,16.20
2019-03-24T08:50:38.344Z,20.17
2019-03-24T08:53:44.694Z,21.17
2019-03-24T08:56:52.044Z,16.23
2019-03-24T08:59:58.380Z,17.03
2019-03-24T09:03:04.909Z,17.40
2019-03-24T09:06:11.483Z,19.10
2019-03-24T09:09:17.741Z,14.90
2019-03-24T09:12:24.072Z,19.57
2019-03-24T09:15:30.439Z,21.07
2019-03-24T09:18:36.765Z,17.37
2019-03-24T09:21:43.061Z,18.13
2019-03-24T09:24:49.447Z,15.23
2019-03-24T09:27:55.738Z,15.50
2019-03-24T09:31:01.295Z,14.80
2019-03-24T09:34:07.807Z,15.03
2019-03-24T09:37:14.215Z,16.57
2019-03-24T09:40:27.287Z,15.17
2019-03-24T09:43:33.709Z,14.80
2019-03-24T09:46:39.978Z,19.63
2019-03-24T09:49:46.333Z,13.87
2019-03-24T09:52:52.650Z,13.57
2019-03-24T09:55:58.954Z,21.00
2019-03-24T09:59:05.247Z,15.87
2019-03-24T10:02:11.552Z,17.93
2019-03-24T10:05:17.974Z,16.13
2019-03-24T10:08:24.498Z,16.53
2019-03-24T10:11:30.836Z,14.73
2019-03-24T10:14:37.113Z,18.57
2019-03-24T10:17:43.390Z,19.97
2019-03-24T10:20:49.740Z,19.03
2019-03-24T10:23:56.064Z,15.13
2019-03-24T10:27:02.528Z,13.47
2019-03-24T10:30:10.078Z,15.60
2019-03-24T10:33:16.392Z,17.47
2019-03-24T10:36:22.747Z,17.47
2019-03-24T10:39:29.049Z,18.93
2019-03-24T10:42:35.321Z,16.60
2019-03-24T10:45:41.780Z,16.97
2019-03-24T10:48:48.115Z,14.17
2019-03-24T10:51:54.450Z,15.53
2019-03-24T10:55:01.137Z,13.97
2019-03-24T10:58:07.672Z,16.63
2019-03-24T11:01:13.953Z,20.63
2019-03-24T11:04:21.238Z,17.23
2019-03-24T11:07:27.589Z,17.37
2019-03-24T11:10:33.955Z,15.23
2019-03-24T11:13:40.457Z,19.50
2019-03-24T11:16:46.826Z,18.43
2019-03-24T11:19:53.205Z,15.57
2019-03-24T11:22:59.462Z,15.23
2019-03-24T11:26:05.871Z,15.10
2019-03-24T11:29:12.193Z,15.70
2019-03-24T11:32:18.531Z,23.27
2019-03-24T11:35:24.786Z,16.73
2019-03-24T11:38:31.064Z,14.90
2019-03-24T11:41:39.845Z,16.27
2019-03-24T11:44:46.436Z,15.10
2019-03-24T11:47:52.923Z,15.03
2019-03-24T11:50:59.205Z,17.77
2019-03-24T11:54:05.540Z,14.67
2019-03-24T11:57:11.846Z,11.90
2019-03-24T12:00:18.626Z,16.13
2019-03-24T12:03:25.483Z,11.67
2019-03-24T12:06:31.997Z,12.20
2019-03-24T12:09:38.493Z,12.27
2019-03-24T12:12:44.806Z,12.53
2019-03-24T12:15:51.307Z,14.93
2019-03-24T12:18:57.686Z,16.63
2019-03-24T12:22:04.073Z,12.23
2019-03-24T12:25:10.573Z,10.43
2019-03-24T12:28:16.859Z,11.10
2019-03-24T12:31:23.256Z,14.57
2019-03-24T12:34:29.631Z,9.30
2019-03-24T12:37:35.893Z,11.33
2019-03-24T12:40:42.195Z,12.67
2019-03-24T12:43:48.592Z,12.57
2019-03-24T12:46:55.199Z,10.77
2019-03-24T12:50:08.940Z,10.40
2019-03-24T12:53:09.490Z,11.33
2019-03-24T12:56:15.745Z,20.70
2019-03-24T12:59:22.002Z,8.67
2019-03-24T13:02:28.396Z,10.80
2019-03-24T13:05:34.908Z,11.33
2019-03-24T13:08:41.171Z,10.53
2019-03-24T13:11:47.597Z,11.43
2019-03-24T13:14:53.845Z,8.10
2019-03-24T13:18:00.168Z,9.73
2019-03-24T13:21:06.550Z,14.17
2019-03-24T13:24:12.827Z,8.87
2019-03-24T13:27:19.288Z,9.60
2019-03-24T13:30:25.794Z,9.20
2019-03-24T13:33:32.058Z,11.03
2019-03-24T13:36:38.309Z,8.70
2019-03-24T13:39:44.641Z,10.70
2019-03-24T13:42:51.041Z,9.47
2019-03-24T13:45:57.551Z,9.60
2019-03-24T13:49:03.865Z,11.07
2019-03-24T13:52:10.303Z,9.07
2019-03-24T13:55:16.770Z,8.67
2019-03-24T13:58:23.276Z,8.97
2019-03-24T14:01:29.800Z,9.83
2019-03-24T14:04:36.055Z,10.50
2019-03-24T14:07:42.585Z,10.43
2019-03-24T14:10:49.051Z,10.67
2019-03-24T14:13:55.488Z,10.00
2019-03-24T14:17:01.833Z,9.13
2019-03-24T14:20:08.757Z,9.37
2019-03-24T14:23:16.341Z,9.60
2019-03-24T14:26:22.695Z,8.33
2019-03-24T14:29:29.023Z,8.60
2019-03-24T14:32:35.391Z,10.13
2019-03-24T14:35:41.732Z,9.03
2019-03-24T14:38:47.999Z,11.43
2019-03-24T14:41:54.431Z,10.20
2019-03-24T14:45:01.813Z,11.87
2019-03-24T14:48:08.502Z,8.33
2019-03-24T14:51:15.022Z,9.13
2019-03-24T14:54:21.507Z,10.73
2019-03-24T14:57:28.783Z,10.10
2019-03-24T15:00:40.553Z,8.77
2019-03-24T15:03:46.815Z,10.80
2019-03-24T15:06:53.162Z,9.30
2019-03-24T15:09:59.473Z,12.17
2019-03-24T15:13:06.092Z,9.37
2019-03-24T15:16:12.360Z,9.57
2019-03-24T15:19:18.667Z,9.87
2019-03-24T15:22:25.018Z,12.33
2019-03-24T15:25:31.405Z,19.10
2019-03-24T15:28:38.010Z,15.53
2019-03-24T15:31:44.323Z,13.50
2019-03-24T15:34:50.640Z,8.00
2019-03-24T15:38:07.791Z,8.47
2019-03-24T15:41:05.044Z,12.17
2019-03-24T15:44:11.457Z,11.43
2019-03-24T15:47:17.723Z,8.67
2019-03-24T15:50:24.155Z,13.93
2019-03-24T15:53:30.686Z,9.20
2019-03-24T15:56:37.111Z,12.70
2019-03-24T15:59:43.486Z,16.90
2019-03-24T16:02:50.503Z,9.43
2019-03-24T16:05:56.742Z,9.57
2019-03-24T16:09:04.035Z,16.50
2019-03-24T16:12:10.322Z,12.50
2019-03-24T16:15:16.628Z,15.50
2019-03-24T16:18:23.697Z,14.23
2019-03-24T16:21:31.275Z,11.60
2019-03-24T16:24:39.234Z,12.83
2019-03-24T16:27:45.678Z,15.00
2019-03-24T16:30:52.034Z,15.20
2019-03-24T16:33:58.683Z,13.10
2019-03-24T16:37:05.079Z,15.17
2019-03-24T16:40:11.633Z,16.13
2019-03-24T16:43:18.732Z,12.73
2019-03-24T16:46:25.031Z,12.73
2019-03-24T16:49:32.312Z,13.60
2019-03-24T16:52:38.632Z,15.07
2019-03-24T16:55:45.653Z,13.23
2019-03-24T16:58:53.127Z,15.47
2019-03-24T17:01:59.422Z,16.37
2019-03-24T17:05:06.878Z,15.67
2019-03-24T17:08:13.914Z,16.77
2019-03-24T17:11:20.314Z,15.63
2019-03-24T17:14:27.599Z,21.77
2019-03-24T17:17:33.889Z,19.07
2019-03-24T17:20:40.601Z,19.23
2019-03-24T17:23:47.760Z,18.77
2019-03-24T17:26:54.258Z,20.87
2019-03-24T17:30:01.664Z,16.17
2019-03-24T17:33:08.956Z,18.70
2019-03-24T17:36:15.240Z,20.17
2019-03-24T17:39:22.288Z,14.70
2019-03-24T17:42:29.595Z,14.70
2019-03-24T17:45:36.190Z,18.17
2019-03-24T17:48:42.656Z,14.73
2019-03-24T17:52:00.225Z,22.37
2019-03-24T17:54:58.669Z,18.07
2019-03-24T17:58:05.982Z,20.90
2019-03-24T18:01:12.479Z,23.67
2019-03-24T18:04:24.618Z,22.77
2019-03-24T18:07:27.980Z,24.90
2019-03-24T18:10:35.349Z,23.40
2019-03-24T18:13:42.522Z,25.63
2019-03-24T18:16:49.696Z,37.10
2019-03-24T18:19:56.203Z,26.40
2019-03-24T18:23:03.369Z,21.23
2019-03-24T18:26:09.667Z,23.90
2019-03-24T18:29:17.444Z,19.93
2019-03-24T18:32:23.754Z,25.37
2019-03-24T18:35:30.705Z,26.40
2019-03-24T18:38:37.005Z,30.47
2019-03-24T18:41:43.321Z,32.23
2019-03-24T18:44:50.421Z,38.63
2019-03-24T18:47:57.926Z,38.70
2019-03-24T18:51:04.631Z,35.80
2019-03-24T18:54:11.011Z,34.73
2019-03-24T18:57:18.402Z,27.47
2019-03-24T19:00:26.352Z,27.40
2019-03-24T19:03:33.387Z,32.53
2019-03-24T19:06:40.565Z,31.40
2019-03-24T19:09:47.022Z,31.23
2019-03-24T19:12:53.840Z,28.23
2019-03-24T19:16:00.136Z,28.13
2019-03-24T19:19:06.733Z,29.57
2019-03-24T19:22:13.383Z,22.00
2019-03-24T19:25:19.834Z,30.37
2019-03-24T19:28:26.368Z,23.30
2019-03-24T19:31:33.734Z,27.23
2019-03-24T19:34:40.114Z,27.47
2019-03-24T19:37:48.192Z,27.40
2019-03-24T19:40:54.496Z,17.83
2019-03-24T19:44:01.533Z,20.83
2019-03-24T19:47:08.584Z,19.37
2019-03-24T19:50:15.277Z,19.53
2019-03-24T19:53:22.792Z,20.23
2019-03-24T19:56:29.844Z,20.97
2019-03-24T19:59:36.976Z,22.63
2019-03-24T20:02:44.452Z,21.40
2019-03-24T20:05:50.771Z,24.73
2019-03-24T20:08:57.510Z,34.40
2019-03-24T20:12:03.894Z,25.20
2019-03-24T20:15:10.873Z,27.57
2019-03-24T20:18:17.134Z,28.57
2019-03-24T20:21:23.440Z,32.10
2019-03-24T20:24:30.658Z,31.23
2019-03-24T20:27:36.973Z,35.53
2019-03-24T20:30:43.483Z,29.77
2019-03-24T20:33:50.436Z,28.90
2019-03-24T20:36:57.468Z,25.27
2019-03-24T20:40:03.886Z,25.83
2019-03-24T20:43:11.707Z,20.90
2019-03-24T20:46:17.992Z,21.73
2019-03-24T20:49:27.322Z,23.50
2019-03-24T20:52:33.630Z,21.30
2019-03-24T20:55:40.677Z,21.20
2019-03-24T20:58:46.963Z,22.43
2019-03-24T21:01:54.107Z,17.77
2019-03-24T21:05:02.137Z,22.53
2019-03-24T21:08:09.950Z,19.77
2019-03-24T21:11:16.172Z,20.83
2019-03-24T21:14:22.732Z,22.17
2019-03-24T21:17:30.093Z,18.47
2019-03-24T21:20:37.333Z,18.60
2019-03-24T21:23:43.635Z,20.40
2019-03-24T21:26:50.839Z,23.93
2019-03-24T21:29:58.034Z,17.73
2019-03-24T21:33:04.513Z,18.07
2019-03-24T21:36:11.735Z,18.50
2019-03-24T21:39:17.997Z,18.20
2019-03-24T21:42:24.367Z,23.03
2019-03-24T21:45:30.767Z,21.30
2019-03-24T21:48:37.194Z,18.87
2019-03-24T21:51:43.606Z,16.43
2019-03-24T21:54:49.908Z,16.53
2019-03-24T21:57:57.705Z,17.33
2019-03-24T22:01:04.407Z,16.37
2019-03-24T22:04:11.829Z,15.50
2019-03-24T22:07:18.148Z,18.90
2019-03-24T22:10:24.417Z,15.57
2019-03-24T22:13:30.683Z,16.77
2019-03-24T22:16:37.051Z,19.63
2019-03-24T22:19:43.327Z,15.83
2019-03-24T22:22:49.591Z,16.13
2019-03-24T22:25:55.877Z,17.37
2019-03-24T22:29:02.173Z,18.57
2019-03-24T22:32:08.534Z,16.87
2019-03-24T22:35:14.813Z,25.67
2019-03-24T22:38:21.154Z,19.83
2019-03-24T22:41:27.423Z,17.47
2019-03-24T22:44:33.863Z,15.57
2019-03-24T22:47:40.126Z,20.17
2019-03-24T22:50:46.471Z,16.90
2019-03-24T22:54:02.981Z,16.67
2019-03-24T22:57:00.758Z,15.93
2019-03-24T23:00:12.065Z,19.33
2019-03-24T23:03:19.983Z,17.23
2019-03-24T23:06:26.321Z,19.07
2019-03-24T23:09:32.646Z,14.77
2019-03-24T23:12:39.030Z,18.30
2019-03-24T23:15:45.385Z,20.50
2019-03-24T23:18:51.837Z,20.00
2019-03-24T23:22:00.963Z,16.33
2019-03-24T23:25:08.085Z,23.60
2019-03-24T23:28:14.681Z,17.20
2019-03-24T23:31:20.952Z,19.13
2019-03-24T23:34:27.358Z,20.60
2019-03-24T23:37:33.630Z,20.43
2019-03-24T23:40:40.060Z,15.83
2019-03-24T23:43:46.329Z,17.83
2019-03-24T23:46:53.905Z,17.63
2019-03-24T23:50:00.343Z,25.10
2019-03-24T23:53:06.880Z,20.43
2019-03-24T23:56:13.232Z,17.27
2019-03-24T23:59:19.524Z,19.83
